Time;durP1;ratioP1;P1;durP2;ratioP2;P2;SDS_P1;SDS_P2;PMS_P1;PMS_P2;Temp;Humidity;BMP_temperature;BMP_pressure;BME280_temperature;BME280_humidity;BME280_pressure;Samples;Min_cycle;Max_cycle;Signal;HPM_P1;HPM_P2
2022/03/20 00:00:14;;;;;;;19.67;13.70;;;6.10;99.90;;;;;;5045785;28;20483;-85
2022/03/20 00:02:54;;;;;;;18.37;13.80;;;6.10;99.90;;;;;;5042868;28;20479;-83
2022/03/20 00:05:23;;;;;;;19.33;13.30;;;6.00;99.90;;;;;;5042458;28;20486;-85
2022/03/20 00:07:56;;;;;;;20.63;13.80;;;6.00;99.90;;;;;;5061342;28;20554;-85
2022/03/20 00:10:23;;;;;;;21.33;13.77;;;5.90;99.90;;;;;;5045371;28;20521;-86
2022/03/20 00:12:50;;;;;;;19.10;13.37;;;5.90;99.90;;;;;;5045084;28;20941;-84
2022/03/20 00:15:18;;;;;;;17.50;13.53;;;5.80;99.90;;;;;;5039824;28;21002;-85
2022/03/20 00:18:00;;;;;;;19.30;13.63;;;5.80;99.90;;;;;;5053055;28;20456;-84
2022/03/20 00:20:33;;;;;;;19.10;14.13;;;5.70;99.90;;;;;;5057889;28;20478;-85
2022/03/20 00:23:00;;;;;;;19.77;14.63;;;5.70;99.90;;;;;;5055999;28;20476;-83
2022/03/20 00:25:27;;;;;;;19.60;13.83;;;5.80;99.90;;;;;;5245753;22;21551;-82
2022/03/20 00:27:54;;;;;;;23.40;14.03;;;5.80;99.90;;;;;;5042670;28;20745;-85
2022/03/20 00:30:25;;;;;;;22.30;13.80;;;5.80;99.90;;;;;;5043904;28;20447;-85
2022/03/20 00:32:52;;;;;;;17.07;13.53;;;5.70;99.90;;;;;;5047928;28;20550;-85
2022/03/20 00:35:19;;;;;;;20.27;14.20;;;5.70;99.90;;;;;;5042656;28;20472;-85
2022/03/20 00:37:46;;;;;;;27.20;13.83;;;5.70;99.90;;;;;;5039633;28;21168;-85
2022/03/20 00:40:16;;;;;;;18.90;13.87;;;5.70;99.90;;;;;;5039702;28;20455;-83
2022/03/20 00:42:46;;;;;;;18.70;13.97;;;5.70;99.90;;;;;;5039857;28;20465;-85
2022/03/20 00:45:15;;;;;;;22.77;13.83;;;5.70;99.90;;;;;;5038712;28;20498;-84
2022/03/20 00:47:48;;;;;;;20.23;13.97;;;5.60;99.90;;;;;;5039458;28;20462;-84
2022/03/20 00:50:15;;;;;;;19.60;12.70;;;5.60;99.90;;;;;;5039306;28;20518;-85
2022/03/20 00:52:42;;;;;;;20.90;14.70;;;5.60;99.90;;;;;;5040288;28;20496;-86
2022/03/20 00:55:15;;;;;;;20.83;14.80;;;5.50;99.90;;;;;;5022200;28;20456;-85
2022/03/20 00:57:42;;;;;;;20.10;12.67;;;5.50;99.90;;;;;;5035086;28;20451;-84
2022/03/20 01:00:10;;;;;;;19.00;13.13;;;5.50;99.90;;;;;;5041458;28;20494;-85
2022/03/20 01:02:40;;;;;;;23.00;14.13;;;5.40;99.90;;;;;;5042783;28;20493;-83
2022/03/20 01:05:12;;;;;;;17.40;13.70;;;5.40;99.90;;;;;;5042402;28;20891;-85
2022/03/20 01:07:39;;;;;;;18.27;14.17;;;5.40;99.90;;;;;;5044560;28;20463;-85
2022/03/20 01:10:07;;;;;;;15.77;12.63;;;5.40;99.90;;;;;;5044122;28;20483;-84
2022/03/20 01:12:36;;;;;;;27.13;13.63;;;5.40;99.90;;;;;;5044582;28;20486;-86
2022/03/20 01:15:04;;;;;;;17.40;13.83;;;5.40;99.90;;;;;;5040942;28;20884;-84
2022/03/20 01:17:32;;;;;;;19.73;13.33;;;5.30;99.90;;;;;;5043641;28;20458;-84
2022/03/20 01:20:01;;;;;;;20.57;13.87;;;5.30;99.90;;;;;;5043054;28;20452;-83
2022/03/20 01:22:29;;;;;;;16.10;12.33;;;5.20;99.90;;;;;;5044476;28;20897;-84
2022/03/20 01:25:00;;;;;;;22.30;14.63;;;5.30;99.90;;;;;;5041714;28;20476;-85
2022/03/20 01:27:27;;;;;;;20.90;14.00;;;5.20;99.90;;;;;;5042606;28;20840;-84
2022/03/20 01:29:56;;;;;;;22.37;13.67;;;5.20;99.90;;;;;;5042458;28;20876;-84
2022/03/20 01:32:26;;;;;;;22.17;14.40;;;5.10;99.90;;;;;;5041729;28;20515;-83
2022/03/20 01:34:53;;;;;;;21.40;13.87;;;5.10;99.90;;;;;;5041021;28;20455;-83
2022/03/20 01:37:20;;;;;;;18.90;13.87;;;5.00;99.90;;;;;;5044178;28;20490;-84
2022/03/20 01:39:48;;;;;;;21.33;14.10;;;5.00;99.90;;;;;;5041446;28;20455;-81
2022/03/20 01:42:15;;;;;;;19.53;13.67;;;5.00;99.90;;;;;;5043140;28;20511;-84
2022/03/20 01:44:42;;;;;;;26.50;14.07;;;5.00;99.90;;;;;;5042984;28;20490;-84
2022/03/20 01:47:09;;;;;;;23.77;13.53;;;5.00;99.90;;;;;;5043688;28;20487;-85
2022/03/20 01:49:36;;;;;;;22.43;14.83;;;5.00;99.90;;;;;;5043488;28;20459;-83
2022/03/20 01:52:14;;;;;;;21.10;14.33;;;4.90;99.90;;;;;;5044735;28;20451;-84
2022/03/20 01:54:44;;;;;;;19.97;14.30;;;4.90;99.90;;;;;;5043060;28;20451;-83
2022/03/20 01:57:14;;;;;;;21.73;14.73;;;4.80;99.90;;;;;;5038253;28;20861;-84
2022/03/20 01:59:41;;;;;;;21.07;14.23;;;4.80;99.90;;;;;;5038635;28;20466;-82
2022/03/20 02:02:08;;;;;;;21.13;15.07;;;4.80;99.90;;;;;;5039858;28;20485;-83
2022/03/20 02:04:36;;;;;;;23.03;14.07;;;4.90;99.90;;;;;;5038082;28;20509;-83
2022/03/20 02:07:04;;;;;;;21.27;13.17;;;5.00;99.90;;;;;;5038743;28;20899;-83
2022/03/20 02:09:31;;;;;;;21.07;13.70;;;5.10;99.90;;;;;;5038536;28;20485;-85
2022/03/20 02:11:59;;;;;;;21.80;14.70;;;5.20;99.90;;;;;;5040289;28;20451;-85
2022/03/20 02:14:28;;;;;;;24.90;14.23;;;5.20;99.90;;;;;;5040603;28;20936;-85
2022/03/20 02:16:56;;;;;;;19.87;13.23;;;5.30;99.90;;;;;;5040206;28;20552;-83
2022/03/20 02:19:24;;;;;;;21.60;14.13;;;5.30;99.90;;;;;;5039174;28;20545;-83
2022/03/20 02:21:53;;;;;;;24.00;13.47;;;5.40;99.90;;;;;;5040066;28;21023;-82
2022/03/20 02:24:30;;;;;;;20.43;14.77;;;5.40;99.90;;;;;;5038780;28;21063;-84
2022/03/20 02:27:09;;;;;;;19.57;13.10;;;5.40;99.90;;;;;;5039786;28;20513;-83
2022/03/20 02:29:37;;;;;;;21.43;13.30;;;5.50;99.90;;;;;;5038577;28;20468;-82
2022/03/20 02:32:05;;;;;;;25.63;15.10;;;5.40;99.90;;;;;;5039565;28;20951;-84
2022/03/20 02:34:32;;;;;;;20.27;14.17;;;5.40;99.90;;;;;;5039034;28;20519;-85
2022/03/20 02:37:01;;;;;;;20.73;13.60;;;5.30;99.90;;;;;;5038410;28;20482;-84
2022/03/20 02:39:29;;;;;;;22.47;15.20;;;5.40;99.90;;;;;;5038857;28;20454;-84
2022/03/20 02:41:57;;;;;;;24.27;15.00;;;5.30;99.90;;;;;;5038972;28;20491;-85
2022/03/20 02:44:56;;;;;;;19.30;13.37;;;5.30;99.90;;;;;;5029867;28;20559;-84
2022/03/20 02:47:25;;;;;;;19.63;14.00;;;5.30;99.90;;;;;;5039147;28;21118;-81
2022/03/20 02:49:54;;;;;;;21.33;12.57;;;5.30;99.90;;;;;;5038893;28;20504;-84
2022/03/20 02:52:25;;;;;;;19.23;13.30;;;5.30;99.90;;;;;;5039147;28;20454;-84
2022/03/20 02:54:52;;;;;;;20.87;13.77;;;5.40;99.90;;;;;;5037966;28;20452;-85
2022/03/20 02:57:19;;;;;;;22.73;13.50;;;5.40;99.90;;;;;;5038276;28;20472;-82
2022/03/20 02:59:46;;;;;;;21.80;14.60;;;5.40;99.90;;;;;;5038893;28;20541;-82
2022/03/20 03:02:13;;;;;;;19.33;12.43;;;5.40;99.90;;;;;;5039447;28;20983;-83
2022/03/20 03:04:41;;;;;;;18.80;13.13;;;5.40;99.90;;;;;;5039184;28;20480;-84
2022/03/20 03:07:09;;;;;;;24.37;13.50;;;5.50;99.90;;;;;;5037924;28;20549;-83
2022/03/20 03:12:22;;;;;;;19.20;12.60;;;5.40;99.90;;;;;;5038938;28;20428;-84
2022/03/20 03:17:34;;;;;;;18.23;13.50;;;5.50;99.90;;;;;;5039335;28;20437;-83
2022/03/20 03:20:01;;;;;;;18.37;12.43;;;5.40;99.90;;;;;;5038736;28;20471;-83
2022/03/20 03:22:28;;;;;;;20.93;15.03;;;5.40;99.90;;;;;;5038749;28;20466;-84
2022/03/20 03:24:57;;;;;;;20.20;12.90;;;5.40;99.90;;;;;;5040914;28;20481;-84
2022/03/20 03:27:24;;;;;;;18.37;12.87;;;5.40;99.90;;;;;;5041210;28;20464;-81
2022/03/20 03:29:51;;;;;;;23.87;13.90;;;5.40;99.90;;;;;;5043335;28;20460;-84
2022/03/20 03:32:18;;;;;;;19.07;13.17;;;5.40;99.90;;;;;;5043323;28;20474;-84
2022/03/20 03:37:32;;;;;;;19.20;13.27;;;5.40;99.90;;;;;;5043215;28;20476;-83
2022/03/20 03:40:02;;;;;;;18.77;13.07;;;5.40;99.90;;;;;;5042588;28;20535;-82
2022/03/20 03:42:29;;;;;;;18.60;12.83;;;5.40;99.90;;;;;;5040933;28;20593;-81
2022/03/20 03:44:56;;;;;;;20.50;13.20;;;5.30;99.90;;;;;;5042604;28;20486;-86
2022/03/20 03:47:24;;;;;;;19.17;13.97;;;5.30;99.90;;;;;;5042480;28;21024;-83
2022/03/20 03:49:51;;;;;;;20.07;13.63;;;5.30;99.90;;;;;;5041195;28;20457;-80
2022/03/20 03:52:19;;;;;;;21.77;13.57;;;5.40;99.90;;;;;;5042672;28;20882;-84
2022/03/20 03:54:46;;;;;;;19.83;14.27;;;5.30;99.90;;;;;;5041308;28;20552;-83
2022/03/20 03:57:14;;;;;;;17.23;12.17;;;5.30;99.90;;;;;;5042792;28;20479;-81
2022/03/20 03:59:41;;;;;;;17.83;12.53;;;5.30;99.90;;;;;;5042047;28;21031;-83
2022/03/20 04:02:08;;;;;;;16.50;12.20;;;5.30;99.90;;;;;;5042143;28;20529;-83
2022/03/20 04:04:35;;;;;;;21.97;12.83;;;5.20;99.90;;;;;;5041553;28;20564;-82
2022/03/20 04:07:02;;;;;;;17.67;11.80;;;5.30;99.90;;;;;;5041692;28;20479;-83
2022/03/20 04:09:29;;;;;;;21.50;12.60;;;5.30;99.90;;;;;;5041308;28;20473;-84
2022/03/20 04:11:56;;;;;;;19.07;13.00;;;5.30;99.90;;;;;;5041254;28;20459;-82
2022/03/20 04:14:25;;;;;;;20.17;13.10;;;5.30;99.90;;;;;;5041757;28;20478;-82
2022/03/20 04:16:54;;;;;;;18.40;12.47;;;5.30;99.90;;;;;;5040790;28;20545;-83
2022/03/20 04:19:21;;;;;;;21.60;12.87;;;5.30;99.90;;;;;;5041472;28;20820;-83
2022/03/20 04:21:48;;;;;;;20.93;13.43;;;5.30;99.90;;;;;;5042531;28;20462;-81
2022/03/20 04:24:15;;;;;;;21.20;12.23;;;5.30;99.90;;;;;;5040830;28;20542;-82
2022/03/20 04:26:44;;;;;;;17.37;12.60;;;5.30;99.90;;;;;;5040303;28;20476;-83
2022/03/20 04:29:11;;;;;;;17.33;12.70;;;5.30;99.90;;;;;;5040789;28;20823;-83
2022/03/20 04:31:40;;;;;;;19.33;12.30;;;5.30;99.90;;;;;;5041378;28;20459;-83
2022/03/20 04:34:07;;;;;;;17.30;12.80;;;5.30;99.90;;;;;;5038926;28;20516;-83
2022/03/20 04:36:35;;;;;;;21.13;13.57;;;5.30;99.90;;;;;;5040850;28;20486;-83
2022/03/20 04:39:03;;;;;;;18.77;12.17;;;5.20;99.90;;;;;;5042005;28;20462;-84
2022/03/20 04:41:30;;;;;;;15.70;11.20;;;5.20;99.90;;;;;;5031408;28;20483;-82
2022/03/20 04:43:58;;;;;;;16.93;12.57;;;5.20;99.90;;;;;;5045948;28;20462;-84
2022/03/20 04:46:25;;;;;;;21.90;12.60;;;5.20;99.90;;;;;;5040715;28;20555;-84
2022/03/20 04:59:51;;;;;;;17.50;12.60;;;5.20;99.90;;;;;;5040158;28;20437;-84
2022/03/20 05:02:18;;;;;;;16.10;11.70;;;5.20;99.90;;;;;;5042139;28;20808;-84
2022/03/20 05:04:46;;;;;;;18.60;12.77;;;5.20;99.90;;;;;;5040161;28;20512;-84
2022/03/20 05:07:13;;;;;;;17.77;12.60;;;5.10;99.90;;;;;;5040941;28;20487;-85
2022/03/20 05:15:11;;;;;;;19.07;12.47;;;4.80;99.90;;;;;;5040823;28;20801;-85
2022/03/20 05:17:38;;;;;;;19.40;11.93;;;4.60;99.90;;;;;;5041967;28;20483;-85
2022/03/20 05:20:07;;;;;;;21.67;12.30;;;4.60;99.90;;;;;;5048312;28;20434;-83
2022/03/20 05:22:38;;;;;;;17.83;11.47;;;4.50;99.90;;;;;;5053050;28;20479;-83
2022/03/20 05:25:08;;;;;;;19.70;12.80;;;4.40;99.90;;;;;;5052961;28;20560;-83
2022/03/20 05:27:35;;;;;;;19.17;11.93;;;4.40;99.90;;;;;;5054365;28;20520;-83
2022/03/20 05:30:03;;;;;;;21.13;13.23;;;4.30;99.90;;;;;;5053707;28;20453;-86
2022/03/20 05:32:30;;;;;;;19.00;12.37;;;4.30;99.90;;;;;;5052925;28;20462;-82
2022/03/20 05:34:57;;;;;;;20.97;12.53;;;4.20;99.90;;;;;;5046542;28;20565;-84
2022/03/20 05:37:26;;;;;;;19.50;11.40;;;4.20;99.90;;;;;;5043532;28;20470;-84
2022/03/20 05:39:53;;;;;;;18.87;13.50;;;4.20;99.90;;;;;;5042647;28;20464;-84
2022/03/20 05:42:19;;;;;;;19.20;12.17;;;4.10;99.90;;;;;;5043058;28;20492;-84
2022/03/20 05:44:46;;;;;;;20.13;12.30;;;4.10;99.90;;;;;;5041426;28;20461;-86
2022/03/20 05:47:13;;;;;;;18.70;13.53;;;4.10;99.90;;;;;;5045959;28;20477;-85
2022/03/20 05:49:40;;;;;;;23.53;11.50;;;4.10;99.90;;;;;;5046225;28;20452;-83
2022/03/20 05:52:08;;;;;;;19.87;12.80;;;4.10;99.90;;;;;;5042599;28;20453;-85
2022/03/20 05:54:36;;;;;;;19.17;12.40;;;4.00;99.90;;;;;;5043940;28;20461;-85
2022/03/20 05:59:51;;;;;;;16.27;11.63;;;4.00;99.90;;;;;;5044682;28;20575;-83
2022/03/20 06:02:19;;;;;;;19.30;11.83;;;4.00;99.90;;;;;;5045389;28;20484;-84
2022/03/20 06:04:46;;;;;;;17.70;11.13;;;4.00;99.90;;;;;;5044027;28;20489;-85
2022/03/20 06:07:13;;;;;;;16.90;12.07;;;4.00;99.90;;;;;;5045211;28;20505;-82
2022/03/20 06:09:41;;;;;;;18.60;12.40;;;4.00;99.90;;;;;;5043050;28;20449;-84
2022/03/20 06:12:10;;;;;;;20.00;12.63;;;4.00;99.90;;;;;;5045293;28;20456;-83
2022/03/20 06:14:37;;;;;;;19.37;13.10;;;4.00;99.90;;;;;;5044644;28;20460;-85
2022/03/20 06:17:05;;;;;;;15.03;11.27;;;4.00;99.90;;;;;;5040117;28;20496;-81
2022/03/20 06:19:33;;;;;;;17.37;12.30;;;4.00;99.90;;;;;;5040391;28;20457;-85
2022/03/20 06:22:00;;;;;;;25.23;11.53;;;4.10;99.90;;;;;;5036687;28;20538;-83
2022/03/20 06:24:27;;;;;;;18.47;11.27;;;4.20;99.90;;;;;;5032928;28;20485;-83
2022/03/20 06:26:55;;;;;;;16.30;11.13;;;4.20;99.90;;;;;;5027653;28;20535;-83
2022/03/20 06:29:25;;;;;;;22.40;12.13;;;4.20;99.90;;;;;;5034405;28;20470;-83
2022/03/20 06:31:53;;;;;;;19.10;12.50;;;4.20;99.90;;;;;;5030783;28;20473;-82
2022/03/20 06:34:21;;;;;;;17.37;11.27;;;4.20;99.90;;;;;;5031771;28;20521;-82
2022/03/20 06:36:48;;;;;;;20.33;11.00;;;4.30;99.90;;;;;;5032121;28;20494;-81
2022/03/20 06:39:15;;;;;;;17.23;10.87;;;4.30;99.90;;;;;;5030098;28;20466;-83
2022/03/20 06:41:44;;;;;;;20.63;12.30;;;4.40;99.90;;;;;;5032005;28;20508;-82
2022/03/20 06:44:15;;;;;;;15.77;10.17;;;4.40;99.90;;;;;;5030854;28;20449;-81
2022/03/20 06:46:46;;;;;;;19.73;12.33;;;4.50;99.90;;;;;;5031288;28;20485;-81
2022/03/20 06:49:13;;;;;;;18.73;12.27;;;4.50;99.90;;;;;;5032449;28;20474;-85
2022/03/20 06:51:41;;;;;;;17.30;11.53;;;4.60;99.90;;;;;;5030499;28;20525;-84
2022/03/20 06:54:08;;;;;;;19.40;11.30;;;4.70;99.90;;;;;;5037863;28;20479;-85
2022/03/20 06:56:35;;;;;;;17.73;11.43;;;4.70;99.90;;;;;;5037735;28;20545;-84
2022/03/20 06:59:02;;;;;;;17.77;12.93;;;4.60;99.90;;;;;;5033374;28;20461;-84
2022/03/20 07:01:30;;;;;;;14.10;10.20;;;4.70;99.90;;;;;;5037936;28;20485;-84
2022/03/20 07:04:00;;;;;;;19.10;11.90;;;4.80;99.90;;;;;;5030722;28;20455;-84
2022/03/20 07:06:30;;;;;;;20.63;11.10;;;4.80;99.90;;;;;;5037796;28;20487;-81
2022/03/20 07:08:59;;;;;;;15.40;10.87;;;4.90;99.90;;;;;;5041577;28;20840;-85
2022/03/20 07:11:32;;;;;;;16.63;12.20;;;5.00;99.90;;;;;;5038456;28;20460;-84
2022/03/20 07:14:00;;;;;;;15.30;10.80;;;5.10;99.90;;;;;;5040249;28;20490;-81
2022/03/20 07:16:30;;;;;;;17.23;11.97;;;5.10;99.90;;;;;;5035053;28;20558;-84
2022/03/20 07:18:59;;;;;;;18.90;11.93;;;5.20;99.90;;;;;;5039099;28;20475;-85
2022/03/20 07:21:28;;;;;;;25.83;13.10;;;5.20;99.90;;;;;;5036683;28;20460;-85
2022/03/20 07:23:57;;;;;;;19.27;11.70;;;5.30;99.90;;;;;;5040430;28;20941;-85
2022/03/20 07:32:06;;;;;;;17.40;12.50;;;5.50;99.90;;;;;;5038802;28;20438;-84
2022/03/20 07:34:35;;;;;;;15.50;11.37;;;5.50;99.90;;;;;;5033239;28;20458;-84
2022/03/20 07:37:05;;;;;;;20.77;12.77;;;5.60;99.90;;;;;;5036211;28;20539;-84
2022/03/20 07:39:50;;;;;;;17.30;12.30;;;5.60;99.90;;;;;;5036568;28;20467;-83
2022/03/20 07:42:23;;;;;;;20.67;12.60;;;5.70;99.90;;;;;;5036752;28;20459;-86
2022/03/20 07:44:50;;;;;;;21.00;13.20;;;5.90;99.90;;;;;;5033369;28;20520;-82
2022/03/20 07:47:18;;;;;;;21.50;12.33;;;5.70;99.90;;;;;;5036773;28;20484;-85
2022/03/20 07:49:48;;;;;;;17.60;12.97;;;5.80;99.90;;;;;;5039505;28;20464;-85
2022/03/20 07:52:15;;;;;;;18.03;13.17;;;6.00;99.90;;;;;;5035315;28;20481;-85
2022/03/20 07:54:42;;;;;;;19.70;11.37;;;6.00;99.90;;;;;;5033941;28;20468;-85
2022/03/20 07:57:09;;;;;;;20.63;11.37;;;6.30;99.90;;;;;;5041879;28;20475;-85
2022/03/20 07:59:36;;;;;;;25.43;13.37;;;6.50;99.90;;;;;;5039564;28;20468;-84
2022/03/20 08:02:03;;;;;;;20.20;12.70;;;6.80;99.90;;;;;;5039980;28;20823;-83
2022/03/20 08:04:31;;;;;;;19.97;12.33;;;6.80;99.90;;;;;;5033875;28;20519;-84
2022/03/20 08:06:59;;;;;;;18.73;12.73;;;6.90;99.90;;;;;;5038259;28;20476;-84
2022/03/20 08:09:28;;;;;;;18.80;12.47;;;6.90;99.90;;;;;;5038884;28;20460;-84
2022/03/20 08:12:06;;;;;;;18.63;14.10;;;6.70;99.90;;;;;;5039548;28;20945;-84
2022/03/20 08:14:35;;;;;;;17.70;13.63;;;6.60;99.90;;;;;;5033980;28;20457;-86
2022/03/20 08:17:01;;;;;;;23.03;13.87;;;6.40;99.90;;;;;;5035330;28;20480;-86
2022/03/20 08:19:29;;;;;;;21.80;11.80;;;6.40;99.90;;;;;;5031191;28;20530;-85
2022/03/20 08:21:58;;;;;;;20.20;12.87;;;6.50;99.90;;;;;;5029228;28;20461;-85
2022/03/20 08:24:26;;;;;;;21.13;12.87;;;6.70;99.90;;;;;;5021869;28;20453;-86
2022/03/20 08:26:54;;;;;;;20.67;11.93;;;7.00;99.90;;;;;;5042051;28;20488;-85
2022/03/20 08:29:21;;;;;;;21.17;13.87;;;7.40;99.90;;;;;;5042047;28;20466;-85
2022/03/20 08:31:48;;;;;;;15.40;11.23;;;8.00;99.90;;;;;;5041945;28;20479;-84
2022/03/20 08:34:16;;;;;;;16.17;11.80;;;8.20;99.90;;;;;;5041429;28;20471;-85
2022/03/20 08:36:44;;;;;;;18.37;14.27;;;8.70;99.90;;;;;;5041934;28;20543;-85
2022/03/20 08:39:11;;;;;;;17.70;12.77;;;9.10;99.90;;;;;;5034341;28;20548;-84
2022/03/20 08:41:40;;;;;;;19.57;14.20;;;9.40;99.90;;;;;;5042399;28;20457;-85
2022/03/20 08:44:08;;;;;;;19.83;14.43;;;9.20;99.90;;;;;;5041862;28;20491;-85
2022/03/20 08:46:35;;;;;;;18.87;13.37;;;8.80;99.90;;;;;;5042002;28;20497;-86
2022/03/20 08:49:07;;;;;;;20.10;13.73;;;9.20;99.90;;;;;;5043659;28;20484;-85
2022/03/20 08:51:35;;;;;;;20.40;14.27;;;9.40;99.90;;;;;;5042234;28;20568;-85
2022/03/20 08:54:02;;;;;;;19.40;14.50;;;9.50;99.90;;;;;;5042295;28;20466;-86
2022/03/20 08:56:29;;;;;;;18.70;13.70;;;9.40;99.90;;;;;;5042239;28;20503;-84
2022/03/20 08:58:58;;;;;;;19.13;13.70;;;9.80;99.90;;;;;;5043617;28;20835;-84
2022/03/20 09:01:25;;;;;;;19.73;13.50;;;9.80;98.80;;;;;;5043325;28;20471;-84
2022/03/20 09:03:52;;;;;;;18.93;14.93;;;9.70;99.90;;;;;;5042934;28;20455;-85
2022/03/20 09:06:20;;;;;;;23.00;15.80;;;10.00;98.60;;;;;;5042877;28;20500;-85
2022/03/20 09:08:47;;;;;;;19.20;14.83;;;10.00;97.70;;;;;;5041979;28;20459;-85
2022/03/20 09:11:14;;;;;;;24.50;14.40;;;10.10;97.50;;;;;;5042950;28;20467;-85
2022/03/20 09:13:41;;;;;;;22.90;15.00;;;10.90;96.70;;;;;;5042684;28;20458;-86
2022/03/20 09:19:03;;;;;;;20.23;15.33;;;12.30;94.60;;;;;;5041725;28;20443;-85
2022/03/20 09:21:33;;;;;;;22.97;16.67;;;12.70;90.00;;;;;;5043421;28;20467;-86
2022/03/20 09:24:01;;;;;;;19.70;13.97;;;12.60;90.50;;;;;;5043147;28;20456;-86
2022/03/20 09:26:28;;;;;;;21.90;16.03;;;12.50;88.20;;;;;;5043278;28;20547;-85
2022/03/20 09:28:55;;;;;;;19.60;15.57;;;12.60;86.20;;;;;;5042665;28;20456;-85
2022/03/20 09:31:24;;;;;;;19.93;15.30;;;12.50;84.20;;;;;;5043735;28;20464;-85
2022/03/20 09:33:52;;;;;;;23.30;16.23;;;12.40;86.00;;;;;;5042328;28;20478;-84
2022/03/20 09:36:20;;;;;;;20.80;15.30;;;12.20;85.40;;;;;;5042279;28;21207;-87
2022/03/20 09:38:47;;;;;;;21.67;16.63;;;12.00;86.30;;;;;;5043999;28;20491;-85
2022/03/20 09:41:14;;;;;;;26.53;16.13;;;11.50;85.20;;;;;;5044965;28;20484;-85
2022/03/20 09:43:43;;;;;;;20.70;14.10;;;11.10;87.10;;;;;;5043079;28;20456;-85
2022/03/20 09:46:10;;;;;;;21.33;13.90;;;11.00;85.80;;;;;;5035770;28;20508;-85
2022/03/20 09:48:38;;;;;;;23.90;15.80;;;10.90;88.00;;;;;;5042594;28;20455;-85
2022/03/20 09:51:06;;;;;;;24.33;16.37;;;11.00;88.00;;;;;;5036123;28;20460;-84
2022/03/20 09:53:33;;;;;;;23.57;16.23;;;11.10;87.00;;;;;;5029699;28;20474;-85
2022/03/20 09:56:05;;;;;;;23.60;16.97;;;11.00;88.30;;;;;;5040587;28;20540;-85
2022/03/20 09:58:32;;;;;;;23.97;17.33;;;11.40;89.10;;;;;;5050962;28;20953;-85
2022/03/20 10:01:00;;;;;;;23.13;15.77;;;11.50;86.90;;;;;;5041786;28;20434;-87
2022/03/20 10:03:27;;;;;;;20.03;15.13;;;11.70;89.10;;;;;;5047898;28;20452;-85
2022/03/20 10:06:15;;;;;;;20.33;16.57;;;11.90;90.40;;;;;;5072195;28;20479;-85
2022/03/20 10:09:02;;;;;;;21.53;15.60;;;12.30;89.50;;;;;;5039638;28;20484;-86
2022/03/20 10:11:29;;;;;;;23.13;16.70;;;13.20;88.20;;;;;;5049561;28;20438;-86
2022/03/20 10:14:16;;;;;;;20.53;15.90;;;14.00;90.60;;;;;;5041538;28;20451;-86
2022/03/20 10:16:44;;;;;;;24.43;16.97;;;15.00;89.30;;;;;;5042013;28;20473;-87
2022/03/20 10:19:31;;;;;;;24.40;17.50;;;15.50;85.60;;;;;;5044607;28;20451;-83
2022/03/20 10:22:01;;;;;;;23.57;17.13;;;15.80;86.10;;;;;;5041298;28;20529;-86
2022/03/20 10:24:30;;;;;;;22.90;18.33;;;15.40;80.20;;;;;;5033099;28;20453;-86
2022/03/20 10:27:17;;;;;;;23.93;16.97;;;15.10;81.20;;;;;;5030949;28;20540;-84
2022/03/20 10:29:52;;;;;;;22.10;17.97;;;15.00;80.00;;;;;;5050934;28;20479;-85
2022/03/20 10:32:20;;;;;;;24.53;17.70;;;14.90;80.50;;;;;;5052100;28;20463;-85
2022/03/20 10:34:52;;;;;;;26.00;20.87;;;15.00;81.50;;;;;;5051227;28;20434;-86
2022/03/20 10:37:22;;;;;;;26.70;18.87;;;15.20;80.60;;;;;;5051997;28;20521;-85
2022/03/20 10:39:49;;;;;;;21.33;17.57;;;15.50;80.50;;;;;;5050872;28;20455;-84
2022/03/20 10:42:18;;;;;;;24.53;17.70;;;15.70;78.30;;;;;;5051107;28;20474;-84
2022/03/20 10:44:45;;;;;;;24.70;20.17;;;15.20;79.50;;;;;;5052359;28;20476;-85
2022/03/20 10:47:16;;;;;;;28.80;22.70;;;14.90;80.60;;;;;;5051681;28;20492;-84
2022/03/20 10:49:49;;;;;;;32.50;24.00;;;14.70;80.30;;;;;;5050804;28;20461;-85
2022/03/20 10:52:22;;;;;;;29.53;21.40;;;14.90;82.00;;;;;;5053049;28;20454;-85
2022/03/20 10:54:53;;;;;;;28.37;18.53;;;14.90;80.60;;;;;;5051636;28;20459;-85
2022/03/20 10:57:20;;;;;;;24.67;19.50;;;15.10;79.00;;;;;;5053329;28;20537;-84
2022/03/20 10:59:59;;;;;;;24.50;19.50;;;15.00;75.80;;;;;;5053943;28;20468;-84
2022/03/20 11:02:26;;;;;;;26.10;19.20;;;14.80;76.30;;;;;;5052805;28;20470;-85
2022/03/20 11:04:54;;;;;;;25.00;18.13;;;14.70;76.10;;;;;;5044309;28;20495;-85
2022/03/20 11:07:26;;;;;;;27.53;19.50;;;15.40;76.90;;;;;;5046825;28;20490;-83
2022/03/20 11:09:55;;;;;;;27.40;19.40;;;15.30;76.20;;;;;;5042464;28;20460;-85
2022/03/20 11:12:26;;;;;;;28.23;19.30;;;15.30;76.10;;;;;;5042521;28;20468;-83
2022/03/20 11:14:55;;;;;;;25.40;19.30;;;15.20;75.40;;;;;;5041601;28;20458;-85
2022/03/20 11:17:24;;;;;;;25.00;19.10;;;15.40;76.60;;;;;;5042742;28;20469;-84
2022/03/20 11:19:54;;;;;;;25.67;20.00;;;15.80;75.40;;;;;;5039845;28;20516;-82
2022/03/20 11:22:22;;;;;;;24.47;20.03;;;15.90;75.30;;;;;;5032817;28;20498;-81
2022/03/20 11:24:53;;;;;;;32.27;22.37;;;15.90;74.80;;;;;;5032808;28;20469;-81
2022/03/20 11:27:27;;;;;;;27.00;20.70;;;15.20;72.50;;;;;;5023268;28;20579;-81
2022/03/20 11:30:01;;;;;;;25.50;20.27;;;15.10;73.40;;;;;;5026341;28;20424;-82
2022/03/20 11:32:29;;;;;;;26.57;20.23;;;15.00;73.60;;;;;;5030523;28;20425;-84
2022/03/20 11:34:56;;;;;;;27.93;21.80;;;14.70;74.10;;;;;;5024141;28;20531;-82
2022/03/20 11:37:24;;;;;;;27.13;20.67;;;14.50;74.90;;;;;;5030046;28;20545;-83
2022/03/20 11:40:13;;;;;;;25.33;19.67;;;14.40;74.60;;;;;;5038046;28;20492;-83
2022/03/20 11:42:42;;;;;;;26.60;20.30;;;14.30;75.70;;;;;;5024983;28;20464;-83
2022/03/20 11:45:18;;;;;;;26.60;21.67;;;14.40;75.40;;;;;;5034510;28;20455;-84
2022/03/20 11:47:47;;;;;;;23.67;20.20;;;14.20;76.40;;;;;;5042651;28;20531;-85
2022/03/20 11:50:17;;;;;;;25.70;19.83;;;14.20;74.60;;;;;;5039032;28;20455;-84
2022/03/20 11:52:47;;;;;;;25.47;19.87;;;14.20;76.10;;;;;;5039991;28;20452;-85
2022/03/20 11:55:33;;;;;;;26.07;21.30;;;14.50;75.80;;;;;;5039859;28;20504;-84
2022/03/20 11:58:10;;;;;;;24.57;19.70;;;14.40;77.10;;;;;;5026610;28;20458;-83
2022/03/20 12:00:39;;;;;;;25.93;20.73;;;14.30;78.70;;;;;;5034097;28;20476;-83
2022/03/20 12:03:52;;;;;;;27.43;22.20;;;14.00;76.80;;;;;;5039745;28;20521;-83
2022/03/20 12:06:49;;;;;;;26.90;20.43;;;13.90;80.50;;;;;;5030146;28;20551;-84
2022/03/20 12:10:00;;;;;;;26.13;21.00;;;13.90;80.90;;;;;;5035608;28;20476;-85
2022/03/20 12:12:54;;;;;;;26.90;20.97;;;14.30;80.70;;;;;;5004506;28;20513;-84
2022/03/20 12:15:24;;;;;;;28.90;22.03;;;14.30;81.30;;;;;;5030715;28;21004;-83
2022/03/20 12:18:03;;;;;;;23.87;19.43;;;14.00;80.10;;;;;;5024620;28;20457;-83
2022/03/20 12:21:03;;;;;;;25.80;20.63;;;14.00;81.60;;;;;;5034648;28;20452;-84
2022/03/20 12:23:43;;;;;;;29.13;21.87;;;13.80;81.30;;;;;;5038992;28;20450;-85
2022/03/20 12:26:34;;;;;;;28.07;20.87;;;13.90;83.50;;;;;;5034317;28;20499;-85
2022/03/20 12:29:36;;;;;;;29.00;21.47;;;14.20;83.60;;;;;;5023076;28;20946;-85
2022/03/20 12:32:06;;;;;;;29.77;21.57;;;14.30;85.10;;;;;;4959805;28;20937;-86
2022/03/20 12:34:33;;;;;;;29.00;21.83;;;14.30;83.10;;;;;;4954738;28;20468;-85
2022/03/20 12:37:39;;;;;;;28.00;22.00;;;14.40;84.80;;;;;;5004799;28;20503;-82
2022/03/20 12:40:11;;;;;;;25.90;20.40;;;14.40;83.60;;;;;;4981188;28;20506;-85
2022/03/20 12:42:40;;;;;;;26.40;20.47;;;14.50;84.80;;;;;;4980340;28;20534;-83
2022/03/20 12:45:11;;;;;;;23.53;19.90;;;14.70;85.70;;;;;;5001995;28;20500;-86
2022/03/20 12:47:38;;;;;;;25.73;21.40;;;14.70;85.10;;;;;;5032953;28;20476;-84
2022/03/20 12:50:09;;;;;;;28.90;22.03;;;14.70;84.60;;;;;;5041628;28;20480;-82
2022/03/20 12:52:37;;;;;;;26.40;19.77;;;14.90;86.60;;;;;;5045150;28;20462;-84
2022/03/20 12:55:07;;;;;;;25.30;21.17;;;14.70;85.80;;;;;;5029258;28;20477;-83
2022/03/20 12:57:39;;;;;;;30.70;21.87;;;14.70;88.30;;;;;;5035688;28;20546;-84
2022/03/20 13:00:14;;;;;;;29.07;22.57;;;14.70;86.90;;;;;;5022776;28;20461;-84
2022/03/20 13:03:03;;;;;;;29.50;22.70;;;14.40;86.10;;;;;;5039933;28;20434;-85
2022/03/20 13:05:35;;;;;;;25.10;20.23;;;14.30;87.20;;;;;;5045349;28;20481;-85
2022/03/20 13:08:02;;;;;;;28.30;21.87;;;14.20;88.40;;;;;;5048473;28;20517;-85
2022/03/20 13:10:36;;;;;;;26.70;19.70;;;13.90;88.80;;;;;;5048986;28;20449;-84
2022/03/20 13:13:04;;;;;;;26.00;20.40;;;14.00;90.00;;;;;;5040478;28;20572;-84
2022/03/20 13:15:34;;;;;;;27.50;19.77;;;14.00;89.80;;;;;;5041394;28;20502;-86
2022/03/20 13:18:08;;;;;;;26.10;19.47;;;14.20;90.20;;;;;;5051176;28;20988;-84
2022/03/20 13:20:40;;;;;;;28.20;21.20;;;14.30;90.90;;;;;;5041553;28;20471;-84
2022/03/20 13:23:08;;;;;;;24.80;19.37;;;14.60;91.00;;;;;;5049622;28;20429;-82